createdAt,value
2019-04-11T00:00:33.319Z,53.12
2019-04-11T00:03:03.103Z,53.70
2019-04-11T00:05:32.812Z,53.75
2019-04-11T00:08:02.230Z,53.74
2019-04-11T00:10:31.745Z,53.63
2019-04-11T00:13:08.880Z,53.87
2019-04-11T00:15:32.820Z,53.46
2019-04-11T00:18:02.795Z,53.05
2019-04-11T00:20:32.439Z,53.66
2019-04-11T00:23:01.916Z,53.83
2019-04-11T00:25:31.729Z,53.37
2019-04-11T00:28:01.652Z,53.68
2019-04-11T00:30:32.293Z,53.90
2019-04-11T00:33:02.235Z,53.99
2019-04-11T00:35:31.825Z,53.74
2019-04-11T00:38:01.461Z,53.68
2019-04-11T00:40:31.200Z,53.81
2019-04-11T00:43:01.081Z,53.14
2019-04-11T00:45:31.742Z,53.26
2019-04-11T00:48:01.658Z,53.82
2019-04-11T00:50:31.633Z,54.16
2019-04-11T00:53:01.513Z,53.88
2019-04-11T00:55:31.439Z,54.18
2019-04-11T00:58:01.398Z,53.93
2019-04-11T01:00:31.285Z,54.55
2019-04-11T01:03:02.046Z,54.23
2019-04-11T01:05:32.149Z,54.06
2019-04-11T01:08:01.694Z,54.30
2019-04-11T01:10:32.027Z,54.73
2019-04-11T01:13:01.551Z,54.75
2019-04-11T01:15:31.478Z,54.58
2019-04-11T01:18:01.483Z,54.48
2019-04-11T01:20:31.406Z,54.84
2019-04-11T01:23:01.050Z,55.00
2019-04-11T01:25:30.720Z,54.60
2019-04-11T01:28:00.556Z,55.07
2019-04-11T01:30:33.699Z,55.15
2019-04-11T01:33:04.504Z,55.42
2019-04-11T01:35:34.476Z,55.53
2019-04-11T01:38:04.061Z,55.40
2019-04-11T01:40:33.912Z,55.56
2019-04-11T01:43:03.939Z,55.21
2019-04-11T01:45:33.732Z,55.11
2019-04-11T01:48:05.003Z,55.46
2019-04-11T01:50:35.299Z,55.22
2019-04-11T01:53:05.020Z,55.71
2019-04-11T01:55:34.946Z,55.11
2019-04-11T01:58:04.685Z,54.84
2019-04-11T02:00:36.511Z,55.50
2019-04-11T02:03:08.972Z,55.66
2019-04-11T02:05:38.702Z,55.79
2019-04-11T02:08:09.262Z,55.87
2019-04-11T02:10:39.119Z,55.79
2019-04-11T02:13:08.287Z,55.95
2019-04-11T02:15:38.700Z,56.14
2019-04-11T02:18:07.963Z,56.15
2019-04-11T02:20:37.412Z,56.58
2019-04-11T02:23:06.853Z,55.84
2019-04-11T02:25:40.869Z,56.26
2019-04-11T02:28:12.631Z,55.95
2019-04-11T02:30:47.656Z,56.19
2019-04-11T02:33:18.172Z,56.36
2019-04-11T02:35:49.017Z,56.03
2019-04-11T02:38:19.024Z,55.83
2019-04-11T02:40:49.940Z,55.86
2019-04-11T02:43:20.473Z,56.05
2019-04-11T02:45:58.260Z,56.54
2019-04-11T02:48:21.386Z,56.42
2019-04-11T02:50:50.895Z,56.53
2019-04-11T02:53:21.279Z,56.57
2019-04-11T02:55:54.734Z,56.30
2019-04-11T02:58:27.326Z,56.05
2019-04-11T03:00:59.405Z,56.56
2019-04-11T03:03:29.825Z,56.58
2019-04-11T03:06:02.153Z,56.32
2019-04-11T03:08:34.199Z,57.08
2019-04-11T03:11:05.182Z,56.90
2019-04-11T03:13:35.324Z,56.86
2019-04-11T03:16:23.279Z,57.02
2019-04-11T03:18:54.986Z,56.87
2019-04-11T03:21:13.802Z,56.94
2019-04-11T03:23:41.406Z,56.74
2019-04-11T03:26:12.404Z,56.89
2019-04-11T03:28:47.485Z,57.17
2019-04-11T03:31:50.630Z,57.28
2019-04-11T03:34:51.896Z,57.13
2019-04-11T03:37:08.546Z,57.39
2019-04-11T03:39:11.346Z,57.34
2019-04-11T03:41:38.744Z,57.18
2019-04-11T03:44:01.892Z,57.64
2019-04-11T03:46:39.670Z,57.73
2019-04-11T03:49:03.912Z,57.35
2019-04-11T03:51:26.290Z,57.74
2019-04-11T03:53:56.974Z,57.56
2019-04-11T03:56:28.721Z,57.45
2019-04-11T03:58:58.543Z,57.45
2019-04-11T04:01:29.487Z,57.86
2019-04-11T04:04:00.469Z,57.68
2019-04-11T04:06:31.054Z,57.77
2019-04-11T04:09:02.595Z,57.99
2019-04-11T04:11:33.819Z,58.36
2019-04-11T04:14:05.003Z,57.86
2019-04-11T04:16:41.303Z,57.95
2019-04-11T04:19:14.758Z,58.23
2019-04-11T04:21:43.526Z,58.25
2019-04-11T04:24:19.113Z,58.11
2019-04-11T04:26:50.297Z,58.51
2019-04-11T04:29:21.858Z,58.74
2019-04-11T04:31:53.247Z,58.62
2019-04-11T04:34:23.924Z,58.68
2019-04-11T04:36:55.568Z,58.45
2019-04-11T04:39:29.231Z,58.77
2019-04-11T04:42:08.188Z,58.86
2019-04-11T04:44:31.727Z,58.38
2019-04-11T04:47:15.615Z,58.45
2019-04-11T04:49:34.550Z,58.51
2019-04-11T04:52:05.924Z,58.66
2019-04-11T04:54:36.517Z,58.63
2019-04-11T04:57:08.524Z,58.33
2019-04-11T04:59:39.963Z,58.07
2019-04-11T05:02:11.001Z,57.77
2019-04-11T05:04:40.487Z,56.72
2019-04-11T05:07:11.756Z,56.22
2019-04-11T05:09:42.639Z,55.93
2019-04-11T05:12:12.189Z,55.37
2019-04-11T05:14:43.319Z,55.73
2019-04-11T05:17:12.947Z,55.91
2019-04-11T05:19:42.454Z,54.11
2019-04-11T05:22:12.608Z,52.89
2019-04-11T05:24:43.347Z,53.40
2019-04-11T05:27:12.966Z,52.75
2019-04-11T05:29:43.620Z,51.79
2019-04-11T05:32:13.511Z,52.55
2019-04-11T05:34:43.516Z,51.27
2019-04-11T05:37:15.304Z,49.75
2019-04-11T05:39:44.990Z,49.75
2019-04-11T05:42:17.798Z,48.49
2019-04-11T05:44:45.607Z,46.83
2019-04-11T05:47:18.435Z,46.00
2019-04-11T05:49:48.082Z,45.29
2019-04-11T05:52:17.855Z,45.40
2019-04-11T05:54:50.901Z,45.68
2019-04-11T05:57:23.745Z,44.84
2019-04-11T05:59:54.413Z,44.07
2019-04-11T06:02:25.014Z,44.34
2019-04-11T06:04:57.881Z,42.95
2019-04-11T06:07:29.341Z,41.74
2019-04-11T06:10:00.723Z,41.23
2019-04-11T06:12:33.570Z,40.90
2019-04-11T06:15:04.598Z,39.73
2019-04-11T06:17:34.349Z,40.66
2019-04-11T06:20:08.605Z,38.96
2019-04-11T06:22:40.155Z,39.94
2019-04-11T06:25:11.583Z,39.69
2019-04-11T06:27:43.321Z,38.35
2019-04-11T06:30:15.907Z,38.34
2019-04-11T06:32:47.820Z,38.68
2019-04-11T06:35:19.925Z,38.50
2019-04-11T06:37:49.912Z,38.58
2019-04-11T06:40:21.141Z,38.48
2019-04-11T06:42:52.323Z,38.20
2019-04-11T06:45:23.795Z,37.04
2019-04-11T06:47:55.130Z,36.67
2019-04-11T06:50:27.031Z,35.60
2019-04-11T06:52:56.713Z,35.96
2019-04-11T06:55:28.980Z,35.96
2019-04-11T06:58:00.514Z,37.72
2019-04-11T07:00:31.526Z,36.00
2019-04-11T07:03:03.529Z,34.54
2019-04-11T07:05:35.945Z,34.71
2019-04-11T07:08:07.651Z,35.38
2019-04-11T07:10:39.036Z,37.58
2019-04-11T07:13:10.245Z,36.68
2019-04-11T07:15:42.030Z,36.99
2019-04-11T07:18:16.568Z,36.03
2019-04-11T07:20:50.497Z,35.96
2019-04-11T07:23:22.258Z,36.70
2019-04-11T07:25:53.891Z,36.13
2019-04-11T07:28:25.352Z,36.69
2019-04-11T07:31:00.363Z,39.80
2019-04-11T07:33:31.196Z,40.06
2019-04-11T07:36:03.891Z,42.54
2019-04-11T07:38:35.012Z,40.77
2019-04-11T07:41:06.592Z,38.71
2019-04-11T07:43:36.184Z,37.46
2019-04-11T07:46:07.138Z,35.83
2019-04-11T07:48:38.103Z,33.62
2019-04-11T07:51:09.429Z,33.34
2019-04-11T07:53:40.396Z,37.29
2019-04-11T07:56:09.958Z,37.95
2019-04-11T07:58:39.839Z,37.18
2019-04-11T08:01:10.466Z,37.32
2019-04-11T08:03:41.748Z,36.60
2019-04-11T08:06:13.373Z,36.67
2019-04-11T08:08:44.470Z,36.96
2019-04-11T08:11:17.910Z,36.12
2019-04-11T08:13:48.529Z,37.13
2019-04-11T08:16:22.632Z,36.90
2019-04-11T08:18:53.914Z,37.34
2019-04-11T08:21:26.082Z,34.07
2019-04-11T08:24:00.360Z,34.37
2019-04-11T08:26:30.449Z,33.27
2019-04-11T08:29:07.505Z,32.54
2019-04-11T08:31:32.881Z,32.59
2019-04-11T08:34:02.799Z,34.83
2019-04-11T08:36:33.948Z,33.63
2019-04-11T08:39:04.773Z,32.11
2019-04-11T08:41:35.949Z,32.76
2019-04-11T08:44:06.160Z,31.81
2019-04-11T08:46:37.305Z,32.07
2019-04-11T08:49:11.060Z,32.01
2019-04-11T08:51:41.892Z,31.22
2019-04-11T08:54:13.284Z,31.68
2019-04-11T08:56:43.487Z,31.97
2019-04-11T08:59:18.529Z,31.97
2019-04-11T09:01:48.528Z,32.02
2019-04-11T09:04:19.437Z,32.10
2019-04-11T09:06:49.954Z,33.01
2019-04-11T09:09:39.683Z,33.06
2019-04-11T09:12:12.084Z,32.48
2019-04-11T09:14:44.347Z,33.22
2019-04-11T09:17:16.463Z,34.46
2019-04-11T09:19:45.870Z,34.54
2019-04-11T09:22:20.485Z,33.44
2019-04-11T09:24:51.630Z,34.18
2019-04-11T09:27:24.885Z,34.52
2019-04-11T09:29:56.648Z,34.26
2019-04-11T09:32:33.951Z,34.57
2019-04-11T09:35:06.227Z,34.42
2019-04-11T09:37:36.111Z,34.06
2019-04-11T09:40:11.945Z,34.04
2019-04-11T09:42:43.177Z,33.49
2019-04-11T09:45:14.432Z,34.09
2019-04-11T09:47:51.932Z,34.08
2019-04-11T09:50:24.628Z,33.81
2019-04-11T09:52:55.962Z,33.78
2019-04-11T09:55:26.535Z,33.87
2019-04-11T09:57:58.199Z,34.34
2019-04-11T10:00:29.039Z,34.06
2019-04-11T10:03:01.723Z,34.18
2019-04-11T10:05:34.169Z,34.39
2019-04-11T10:08:06.495Z,34.13
2019-04-11T10:10:40.726Z,34.54
2019-04-11T10:13:10.899Z,34.19
2019-04-11T10:15:43.123Z,33.32
2019-04-11T10:18:22.974Z,32.93
2019-04-11T10:20:45.717Z,33.14
2019-04-11T10:23:16.860Z,33.26
2019-04-11T10:25:47.623Z,33.13
2019-04-11T10:28:17.504Z,33.90
2019-04-11T10:30:48.861Z,33.47
2019-04-11T10:33:20.462Z,33.37
2019-04-11T10:35:51.491Z,32.67
2019-04-11T10:38:22.500Z,34.05
2019-04-11T10:40:54.526Z,33.50
2019-04-11T10:43:24.567Z,33.41
2019-04-11T10:45:55.790Z,33.46
2019-04-11T10:48:36.845Z,32.74
2019-04-11T10:50:58.282Z,33.00
2019-04-11T10:53:27.936Z,32.66
2019-04-11T10:56:00.012Z,31.85
2019-04-11T10:58:31.220Z,31.79
2019-04-11T11:01:02.375Z,31.66
2019-04-11T11:03:34.069Z,31.68
2019-04-11T11:06:05.421Z,31.90
2019-04-11T11:08:37.651Z,31.01
2019-04-11T11:11:13.261Z,30.54
2019-04-11T11:13:43.956Z,31.54
2019-04-11T11:16:13.908Z,30.90
2019-04-11T11:19:15.609Z,31.60
2019-04-11T11:21:17.628Z,30.99
2019-04-11T11:23:49.620Z,30.64
2019-04-11T11:26:25.698Z,31.18
2019-04-11T11:28:56.808Z,30.97
2019-04-11T11:31:27.986Z,30.51
2019-04-11T11:33:58.831Z,30.81
2019-04-11T11:36:33.121Z,31.23
2019-04-11T11:39:01.173Z,30.25
2019-04-11T11:41:32.508Z,31.43
2019-04-11T11:44:01.997Z,31.59
2019-04-11T11:46:34.156Z,32.27
2019-04-11T11:49:05.929Z,32.01
2019-04-11T11:51:37.547Z,31.30
2019-04-11T11:54:08.180Z,31.90
2019-04-11T11:56:40.239Z,31.80
2019-04-11T11:59:11.561Z,32.03
2019-04-11T12:01:46.506Z,32.28
2019-04-11T12:04:16.732Z,32.93
2019-04-11T12:06:48.193Z,32.34
2019-04-11T12:09:18.234Z,32.24
2019-04-11T12:11:52.445Z,31.56
2019-04-11T12:14:20.638Z,31.56
2019-04-11T12:17:01.199Z,33.00
2019-04-11T12:19:40.837Z,31.84
2019-04-11T12:22:00.015Z,31.95
2019-04-11T12:24:32.230Z,31.62
2019-04-11T12:27:04.486Z,32.19
2019-04-11T12:29:38.677Z,32.19
2019-04-11T12:32:10.349Z,32.13
2019-04-11T12:34:43.905Z,32.44
2019-04-11T12:37:17.638Z,31.56
2019-04-11T12:39:49.982Z,31.12
2019-04-11T12:42:23.760Z,31.23
2019-04-11T12:44:59.736Z,31.25
2019-04-11T12:47:28.942Z,30.79
2019-04-11T12:50:00.123Z,30.92
2019-04-11T12:52:31.247Z,31.07
2019-04-11T12:55:05.236Z,31.29
2019-04-11T12:57:36.398Z,31.39
2019-04-11T13:00:10.130Z,30.92
2019-04-11T13:02:41.260Z,31.56
2019-04-11T13:05:12.571Z,31.10
2019-04-11T13:07:47.281Z,30.76
2019-04-11T13:10:19.343Z,31.22
2019-04-11T13:12:51.067Z,31.10
2019-04-11T13:15:23.780Z,30.99
2019-04-11T13:17:57.044Z,30.65
2019-04-11T13:20:30.875Z,30.82
2019-04-11T13:23:02.033Z,30.64
2019-04-11T13:25:36.875Z,30.82
2019-04-11T13:28:06.490Z,30.73
2019-04-11T13:30:37.727Z,31.06
2019-04-11T13:33:08.669Z,31.21
2019-04-11T13:35:39.928Z,31.04
2019-04-11T13:38:11.143Z,31.11
2019-04-11T13:40:42.399Z,31.06
2019-04-11T13:43:16.190Z,31.30
2019-04-11T13:45:47.434Z,30.78
2019-04-11T13:48:18.713Z,31.28
2019-04-11T13:50:49.884Z,30.92
2019-04-11T13:53:21.040Z,30.71
2019-04-11T13:55:51.118Z,30.93
2019-04-11T13:58:22.716Z,31.58
2019-04-11T14:00:52.664Z,31.69
2019-04-11T14:03:24.062Z,31.40
2019-04-11T14:05:53.093Z,31.40
2019-04-11T14:08:23.991Z,31.94
2019-04-11T14:10:55.233Z,32.22
2019-04-11T14:13:26.235Z,31.55
2019-04-11T14:15:57.458Z,31.65
2019-04-11T14:18:28.646Z,32.00
2019-04-11T14:21:00.238Z,31.53
2019-04-11T14:23:31.549Z,31.40
2019-04-11T14:26:02.498Z,30.88
2019-04-11T14:28:33.818Z,31.54
2019-04-11T14:31:10.919Z,31.35
2019-04-11T14:33:42.122Z,31.69
2019-04-11T14:36:13.331Z,31.61
2019-04-11T14:38:47.699Z,31.44
2019-04-11T14:41:17.437Z,31.52
2019-04-11T14:43:48.319Z,31.52
2019-04-11T14:46:19.681Z,31.82
2019-04-11T14:48:50.939Z,31.75
2019-04-11T14:51:23.836Z,31.25
2019-04-11T14:53:55.354Z,31.46
2019-04-11T14:56:27.155Z,31.25
2019-04-11T14:58:58.539Z,31.22
2019-04-11T15:01:29.498Z,31.44
2019-04-11T15:03:58.516Z,32.22
2019-04-11T15:06:31.329Z,32.00
2019-04-11T15:09:02.831Z,32.39
2019-04-11T15:11:32.074Z,31.49
2019-04-11T15:14:01.368Z,31.45
2019-04-11T15:16:32.502Z,31.70
2019-04-11T15:19:01.800Z,31.38
2019-04-11T15:21:36.392Z,31.68
2019-04-11T15:24:07.429Z,31.88
2019-04-11T15:26:38.900Z,30.93
2019-04-11T15:29:13.556Z,31.08
2019-04-11T15:31:43.741Z,30.32
2019-04-11T15:34:17.698Z,31.01
2019-04-11T15:36:57.736Z,31.03
2019-04-11T15:39:30.108Z,31.12
2019-04-11T15:42:02.454Z,30.99
2019-04-11T15:44:32.331Z,30.79
2019-04-11T15:47:03.353Z,31.34
2019-04-11T15:49:34.525Z,31.45
2019-04-11T15:52:06.857Z,31.50
2019-04-11T15:54:38.335Z,31.65
2019-04-11T15:57:12.218Z,31.80
2019-04-11T15:59:44.042Z,31.93
2019-04-11T16:02:13.838Z,32.59
2019-04-11T16:04:46.951Z,32.13
2019-04-11T16:07:20.918Z,31.91
2019-04-11T16:09:53.741Z,31.85
2019-04-11T16:12:25.036Z,32.33
2019-04-11T16:15:00.631Z,32.61
2019-04-11T16:17:31.974Z,32.82
2019-04-11T16:20:02.049Z,32.76
2019-04-11T16:22:33.306Z,33.24
2019-04-11T16:25:04.740Z,32.80
2019-04-11T16:27:36.638Z,32.56
2019-04-11T16:30:10.161Z,32.68
2019-04-11T16:32:42.155Z,32.66
2019-04-11T16:35:14.092Z,32.98
2019-04-11T16:37:47.683Z,32.95
2019-04-11T16:40:18.033Z,32.99
2019-04-11T16:42:47.851Z,33.22
2019-04-11T16:45:18.727Z,33.23
2019-04-11T16:47:53.758Z,33.37
2019-04-11T16:50:24.114Z,33.36
2019-04-11T16:52:54.218Z,33.28
2019-04-11T16:55:23.402Z,33.43
2019-04-11T16:57:52.875Z,33.55
2019-04-11T17:00:22.459Z,33.85
2019-04-11T17:02:54.715Z,34.28
2019-04-11T17:05:24.032Z,33.83
2019-04-11T17:07:56.189Z,33.91
2019-04-11T17:10:28.365Z,34.15
2019-04-11T17:12:57.933Z,33.81
2019-04-11T17:15:30.412Z,33.81
2019-04-11T17:17:59.725Z,34.07
2019-04-11T17:20:29.705Z,34.60
2019-04-11T17:23:00.556Z,34.41
2019-04-11T17:25:30.170Z,34.49
2019-04-11T17:27:59.749Z,34.51
2019-04-11T17:30:29.439Z,34.42
2019-04-11T17:32:59.627Z,34.59
2019-04-11T17:35:31.575Z,34.69
2019-04-11T17:38:03.397Z,34.80
2019-04-11T17:40:31.565Z,34.63
2019-04-11T17:43:01.042Z,35.15
2019-04-11T17:45:30.556Z,35.08
2019-04-11T17:48:00.323Z,35.33
2019-04-11T17:50:29.935Z,35.26
2019-04-11T17:52:59.922Z,35.61
2019-04-11T17:55:29.523Z,35.82
2019-04-11T17:57:59.005Z,35.86
2019-04-11T18:00:30.696Z,36.00
2019-04-11T18:03:01.900Z,35.89
2019-04-11T18:05:31.702Z,36.34
2019-04-11T18:08:01.208Z,36.83
2019-04-11T18:10:30.760Z,36.83
2019-04-11T18:13:00.564Z,36.87
2019-04-11T18:15:31.162Z,37.06
2019-04-11T18:18:03.094Z,37.20
2019-04-11T18:20:32.326Z,37.44
2019-04-11T18:23:01.766Z,37.56
2019-04-11T18:25:31.289Z,37.51
2019-04-11T18:28:00.848Z,37.88
2019-04-11T18:30:30.570Z,38.22
2019-04-11T18:32:59.831Z,38.53
2019-04-11T18:35:31.966Z,38.54
2019-04-11T18:38:02.114Z,38.51
2019-04-11T18:40:31.799Z,38.72
2019-04-11T18:43:01.209Z,39.18
2019-04-11T18:45:30.759Z,39.01
2019-04-11T18:48:00.469Z,39.18
2019-04-11T18:50:30.560Z,39.29
2019-04-11T18:53:00.700Z,39.60
2019-04-11T18:55:30.620Z,39.51
2019-04-11T18:58:04.734Z,39.59
2019-04-11T19:00:35.859Z,39.73
2019-04-11T19:03:08.071Z,39.91
2019-04-11T19:05:42.734Z,40.11
2019-04-11T19:08:13.692Z,40.07
2019-04-11T19:10:45.786Z,40.23
2019-04-11T19:13:17.697Z,40.05
2019-04-11T19:15:48.345Z,40.14
2019-04-11T19:18:19.694Z,40.57
2019-04-11T19:20:50.920Z,40.84
2019-04-11T19:23:27.939Z,40.88
2019-04-11T19:25:58.634Z,41.03
2019-04-11T19:28:29.316Z,40.88
2019-04-11T19:31:00.111Z,41.05
2019-04-11T19:33:34.010Z,41.25
2019-04-11T19:36:03.151Z,41.27
2019-04-11T19:38:36.462Z,41.10
2019-04-11T19:41:09.124Z,41.22
2019-04-11T19:43:40.914Z,41.42
2019-04-11T19:46:13.262Z,41.62
2019-04-11T19:48:43.447Z,41.56
2019-04-11T19:51:14.728Z,41.88
2019-04-11T19:53:44.910Z,41.84
2019-04-11T19:56:16.395Z,42.03
2019-04-11T19:58:46.422Z,41.97
2019-04-11T20:01:16.116Z,41.97
2019-04-11T20:03:45.474Z,42.16
2019-04-11T20:06:14.728Z,42.33
2019-04-11T20:08:44.274Z,42.17
2019-04-11T20:11:13.792Z,42.72
2019-04-11T20:13:43.242Z,42.90
2019-04-11T20:16:13.272Z,43.13
2019-04-11T20:18:50.926Z,42.83
2019-04-11T20:21:14.152Z,43.16
2019-04-11T20:23:43.623Z,43.13
2019-04-11T20:26:13.183Z,43.14
2019-04-11T20:28:43.537Z,43.27
2019-04-11T20:31:13.604Z,43.23
2019-04-11T20:33:43.758Z,43.28
2019-04-11T20:36:13.834Z,43.49
2019-04-11T20:38:44.747Z,43.65
2019-04-11T20:41:16.820Z,43.77
2019-04-11T20:43:47.019Z,43.71
2019-04-11T20:46:16.754Z,43.96
2019-04-11T20:48:46.280Z,44.15
2019-04-11T20:51:17.575Z,43.99
2019-04-11T20:53:47.855Z,44.06
2019-04-11T20:56:24.043Z,44.29
2019-04-11T20:58:49.174Z,44.30
2019-04-11T21:01:19.196Z,44.02
2019-04-11T21:03:49.327Z,44.29
2019-04-11T21:06:19.537Z,44.44
2019-04-11T21:08:50.035Z,44.46
2019-04-11T21:11:20.441Z,44.59
2019-04-11T21:13:50.313Z,44.71
2019-04-11T21:16:20.605Z,44.57
2019-04-11T21:18:50.837Z,44.81
2019-04-11T21:21:22.848Z,44.34
2019-04-11T21:23:52.205Z,44.60
2019-04-11T21:26:22.472Z,44.80
2019-04-11T21:28:52.657Z,45.46
2019-04-11T21:31:23.186Z,45.48
2019-04-11T21:33:53.554Z,45.62
2019-04-11T21:36:22.829Z,45.64
2019-04-11T21:38:53.042Z,45.98
2019-04-11T21:41:22.668Z,46.10
2019-04-11T21:43:52.335Z,46.49
2019-04-11T21:46:22.263Z,45.79
2019-04-11T21:48:52.381Z,46.12
2019-04-11T21:51:21.974Z,45.72
2019-04-11T21:53:51.695Z,45.84
2019-04-11T21:56:22.208Z,45.88
2019-04-11T21:58:52.395Z,46.29
2019-04-11T22:01:24.847Z,46.16
2019-04-11T22:03:57.733Z,46.49
2019-04-11T22:06:30.614Z,46.84
2019-04-11T22:08:59.983Z,46.81
2019-04-11T22:11:30.168Z,46.87
2019-04-11T22:14:00.243Z,47.00
2019-04-11T22:16:29.979Z,47.45
2019-04-11T22:19:00.264Z,47.34
2019-04-11T22:21:29.841Z,47.62
2019-04-11T22:23:59.392Z,47.70
2019-04-11T22:26:29.075Z,47.44
2019-04-11T22:29:00.708Z,47.50
2019-04-11T22:31:30.301Z,47.66
2019-04-11T22:34:01.539Z,47.64
2019-04-11T22:36:31.212Z,47.52
2019-04-11T22:39:01.580Z,47.85
2019-04-11T22:41:31.133Z,47.55
2019-04-11T22:44:01.731Z,47.58
2019-04-11T22:46:37.577Z,47.51
2019-04-11T22:49:08.676Z,47.79
2019-04-11T22:51:36.798Z,48.45
2019-04-11T22:54:06.401Z,48.21
2019-04-11T22:56:36.170Z,48.06
2019-04-11T22:59:05.820Z,47.94
2019-04-11T23:01:35.250Z,48.05
2019-04-11T23:04:05.730Z,47.78
2019-04-11T23:06:35.327Z,48.08
2019-04-11T23:09:06.555Z,48.21
2019-04-11T23:11:36.087Z,48.47
2019-04-11T23:14:05.635Z,48.56
2019-04-11T23:16:34.933Z,48.79
2019-04-11T23:19:04.465Z,49.09
2019-04-11T23:21:34.009Z,48.82
2019-04-11T23:24:11.471Z,49.00
2019-04-11T23:26:34.522Z,48.99
2019-04-11T23:29:04.124Z,49.13
2019-04-11T23:31:33.380Z,49.23
2019-04-11T23:34:02.949Z,49.17
2019-04-11T23:36:32.577Z,49.41
2019-04-11T23:39:01.987Z,49.39
2019-04-11T23:41:31.602Z,49.45
2019-04-11T23:44:00.850Z,49.77
2019-04-11T23:46:30.491Z,50.27
2019-04-11T23:49:00.014Z,50.33
2019-04-11T23:51:29.554Z,49.85
2019-04-11T23:53:59.865Z,49.84
2019-04-11T23:56:30.589Z,50.22
2019-04-11T23:59:02.085Z,50.52
